Flight Track Log - Related Links

Times and Time Zones

All times are in EDT time to prevent confusion due to time zone crossing. See the SWA378 flight status page for this flight to view local times or setup timezone preferences in your user account.

Time Position Orientation Groundspeed Altitude Reporting Facility
EDT Latitude Longitude Course Direction KTS MPH feet Rate Location/Type
Fri 01:26:39 PM 33.8997 -118.5383 222° Southwest 258 297 5,100  Level Los Angeles Center
Fri 01:27:41 PM 33.8247 -118.5283 174° South 282 325 8,100 2,952 Climbing Los Angeles Center
Fri 01:28:43 PM 33.7439 -118.5256 178° South 295 339 11,200 3,000 Climbing Los Angeles Center
Fri 01:29:45 PM 33.6544 -118.4575 148° Southeast 359 413 14,300 2,710 Climbing Los Angeles Center
Fri 01:30:47 PM 33.6003 -118.3561 123° Southeast 375 432 16,800 2,419 Climbing Los Angeles Center
Fri 01:31:49 PM 33.6022 -118.2286 89° East 395 455 19,300 2,304 Climbing Los Angeles Center
Fri 01:32:52 PM 33.6050 -118.0658 89° East 412 474 21,600 2,304 Climbing Los Angeles Center
Fri 01:33:54 PM 33.6081 -117.9203 89° East 436 502 24,100 2,177 Climbing Los Angeles Center
Fri 01:34:56 PM 33.6106 -117.7764 89° East 435 501 26,100 1,742 Climbing Los Angeles Center
Fri 01:35:58 PM 33.6133 -117.6269 89° East 446 513 27,700 1,500 Climbing Los Angeles Center
Fri 01:37:00 PM 33.6150 -117.4728 89° East 463 533 29,200 1,258 Climbing Los Angeles Center
Fri 01:38:02 PM 33.6181 -117.3144 89° East 475 547 30,300 1,306 Climbing Los Angeles Center
Fri 01:39:04 PM 33.6203 -117.1175 89° East 492 566 31,900 1,742 Climbing Los Angeles Center
Fri 01:40:06 PM 33.6222 -116.9536 89° East 494 568 33,900 1,597 Climbing Los Angeles Center
Fri 01:41:08 PM 33.6242 -116.7972 89° East 483 556 35,200 1,161 Climbing Los Angeles Center
Fri 01:42:10 PM 33.6475 -116.6386 80° East 485 558 36,300 823 Climbing Los Angeles Center
Fri 01:43:12 PM 33.6758 -116.4789 78° East 488 562 36,900 336 Climbing Los Angeles Center
Fri 01:44:15 PM 33.7092 -116.2864 78° East 490 564 37,000 48 Climbing Los Angeles Center
Fri 01:45:17 PM 33.7369 -116.1275 78° East 485 558 37,000  Level Los Angeles Center
Fri 01:46:19 PM 33.7617 -115.9689 79° East 483 556 37,000  Level Los Angeles Center
Fri 01:47:21 PM 33.7875 -115.8100 79° East 483 556 37,000  Level Los Angeles Center
Fri 01:48:24 PM 33.8119 -115.6492 80° East 488 562 37,000  Level Los Angeles Center
Fri 01:49:25 PM 33.8353 -115.4872 80° East 490 564 37,000  Level Los Angeles Center
Fri 01:50:27 PM 33.8642 -115.2964 80° East 485 558 37,000  Level Los Angeles Center
Fri 01:51:29 PM 33.8869 -115.1369 80° East 484 557 37,000  Level Los Angeles Center
Fri 01:52:31 PM 33.9111 -114.9772 80° East 486 559 37,000  Level Los Angeles Center
Fri 01:53:34 PM 33.9375 -114.8150 79° East 492 566 37,000  Level Los Angeles Center
Fri 01:54:36 PM 33.9611 -114.6550 80° East 489 563 37,000  Level Los Angeles Center
Fri 01:55:38 PM 33.9844 -114.4972 80° East 481 554 37,000  Level Los Angeles Center
Fri 01:56:40 PM 34.0106 -114.3078 81° East 479 551 37,000  Level Los Angeles Center
Fri 01:57:42 PM 34.0344 -114.1494 80° East 480 552 37,000  Level Los Angeles Center
Fri 01:58:44 PM 34.0564 -113.9939 80° East 473 544 37,000  Level Los Angeles Center
Fri 01:59:47 PM 34.0775 -113.8375 81° East 473 544 37,000  Level Los Angeles Center
Fri 02:00:49 PM 34.0992 -113.6808 80° East 474 545 37,000  Level Los Angeles Center
Fri 02:01:51 PM 34.1244 -113.5031 80° East 482 555 37,000  Level Los Angeles Center
Fri 02:03:00 PM 34.1431 -113.3506 82° East  Level FlightAware Approximate
Fri 02:04:04 PM 34.1692 -113.1639 82° East 472 543 37,000  Level Albuquerque Center
Fri 02:05:06 PM 34.1892 -113.0061 81° East 473 544 37,000  Level Albuquerque Center
Fri 02:06:08 PM 34.2094 -112.8489 81° East 475 547 37,000  Level Albuquerque Center
Fri 02:07:10 PM 34.2342 -112.6608 81° East 472 543 37,000  Level Albuquerque Center
Fri 02:08:12 PM 34.2558 -112.5033 81° East 473 544 37,000  Level Albuquerque Center
Fri 02:09:14 PM 34.2764 -112.3469 81° East 472 543 37,000  Level Albuquerque Center
Fri 02:10:16 PM 34.2950 -112.1914 82° East 468 539 37,000  Level Albuquerque Center
Fri 02:11:18 PM 34.3136 -112.0361 82° East 465 535 37,000  Level Albuquerque Center
Fri 02:12:20 PM 34.3336 -111.8822 81° East 462 532 37,000  Level Albuquerque Center
Fri 02:13:22 PM 34.3522 -111.7286 82° East 459 528 37,000  Level Albuquerque Center
Fri 02:14:24 PM 34.3708 -111.5736 82° East 461 531 37,000  Level Albuquerque Center
Fri 02:15:26 PM 34.3925 -111.3864 82° East 465 535 37,000  Level Albuquerque Center
Fri 02:16:28 PM 34.4108 -111.2292 82° East 469 540 37,000  Level Albuquerque Center
Fri 02:17:29 PM 34.4297 -111.0753 81° East 464 534 37,000  Level Albuquerque Center
Fri 02:18:31 PM 34.4472 -110.9219 82° East 462 532 37,000  Level Albuquerque Center
Fri 02:19:33 PM 34.4636 -110.7675 83° East 462 532 37,000  Level Albuquerque Center
Fri 02:20:35 PM 34.4825 -110.6147 81° East 460 529 37,000  Level Albuquerque Center
Fri 02:21:37 PM 34.5008 -110.4619 82° East 459 528 37,000  Level Albuquerque Center
Fri 02:22:38 PM 34.5178 -110.2903 83° East 466 536 37,000  Level Albuquerque Center
Fri 02:23:40 PM 34.5364 -110.1167 83° East 466 536 37,000  Level Albuquerque Center
Fri 02:24:42 PM 34.5525 -109.9678 82° East 466 536 37,000  Level Albuquerque Center
Fri 02:25:44 PM 34.5711 -109.7925 83° East 468 539 37,000  Level Albuquerque Center
Fri 02:26:45 PM 34.5867 -109.6439 83° East 467 537 37,000  Level Albuquerque Center
Fri 02:27:47 PM 34.6047 -109.4675 83° East 470 541 37,000  Level Albuquerque Center
Fri 02:28:49 PM 34.6200 -109.3172 83° East 471 542 37,000  Level Albuquerque Center
Fri 02:29:51 PM 34.6367 -109.1419 83° East 470 541 37,000  Level Albuquerque Center
Fri 02:30:52 PM 34.6519 -108.9928 83° East 467 537 37,000  Level Albuquerque Center
Fri 02:31:54 PM 34.6669 -108.8444 83° East 465 535 37,000  Level Albuquerque Center
Fri 02:32:56 PM 34.6839 -108.6700 83° East 466 536 37,000  Level Albuquerque Center
Fri 02:33:58 PM 34.6981 -108.5214 83° East 466 536 37,000  Level Albuquerque Center
Fri 02:34:59 PM 34.7131 -108.3544 84° East 465 535 37,000  Level Albuquerque Center
Fri 02:36:01 PM 34.7278 -108.1983 83° East 465 535 37,000  Level Albuquerque Center
Fri 02:37:03 PM 34.7447 -108.0233 83° East 467 537 37,000  Level Albuquerque Center
Fri 02:38:05 PM 34.7564 -107.8858 84° East 465 535 37,000  Level Albuquerque Center
Fri 02:39:07 PM 34.7697 -107.7317 84° East 461 531 37,000  Level Albuquerque Center
Fri 02:40:08 PM 34.7853 -107.5478 84° East 458 527 37,000  Level Albuquerque Center
Fri 02:41:10 PM 34.7975 -107.3947 84° East 456 525 37,000  Level Albuquerque Center
Fri 02:42:12 PM 34.8103 -107.2408 84° East 459 528 37,000  Level Albuquerque Center
Fri 02:43:14 PM 34.8222 -107.0883 85° East 458 527 37,000  Level Albuquerque Center
Fri 02:44:16 PM 34.8344 -106.9350 84° East 460 529 37,000  Level Albuquerque Center
Fri 02:45:18 PM 34.8489 -106.7706 84° East 458 527 37,000  Level Albuquerque Center
Fri 02:46:20 PM 34.8614 -106.6006 85° East 452 520 37,000  Level Albuquerque Center
Fri 02:47:21 PM 34.8728 -106.4447 85° East 474 545 37,000  Level Albuquerque Center
Fri 02:48:23 PM 34.8847 -106.2903 85° East 464 534 37,000  Level Albuquerque Center
Fri 02:49:25 PM 34.8958 -106.1356 85° East 461 531 37,000  Level Albuquerque Center
Fri 02:50:27 PM 34.9067 -105.9792 85° East 463 533 37,000  Level Albuquerque Center
Fri 02:51:29 PM 34.9189 -105.8097 85° East 462 532 37,000  Level Albuquerque Center
Fri 02:52:31 PM 34.9317 -105.6250 85° East 465 535 37,000  Level Albuquerque Center
Fri 02:53:33 PM 34.9431 -105.4681 85° East 463 533 37,000  Level Albuquerque Center
Fri 02:54:35 PM 34.9533 -105.3097 85° East 465 535 37,000  Level Albuquerque Center
Fri 02:55:37 PM 34.9642 -105.1531 85° East 462 532 37,000  Level Albuquerque Center
Fri 02:56:39 PM 34.9739 -104.9947 86° East 464 534 37,000  Level Albuquerque Center
Fri 02:57:41 PM 34.9853 -104.8375 85° East 464 534 37,000  Level Albuquerque Center
Fri 02:58:43 PM 34.9958 -104.6786 85° East 466 536 37,000  Level Albuquerque Center
Fri 02:59:45 PM 35.0061 -104.4950 86° East 464 534 37,000  Level Albuquerque Center
Fri 03:00:47 PM 35.0158 -104.3358 86° East 469 540 37,000  Level Albuquerque Center
Fri 03:01:49 PM 35.0242 -104.1781 86° East 471 542 37,000  Level Albuquerque Center
Fri 03:02:51 PM 35.0347 -104.0214 85° East 468 539 37,000  Level Albuquerque Center
Fri 03:03:53 PM 35.0439 -103.8644 86° East 465 535 37,000  Level Albuquerque Center
Fri 03:04:54 PM 35.0542 -103.6808 86° East 464 534 37,000  Level Albuquerque Center
Fri 03:05:56 PM 35.0625 -103.5217 86° East 466 536 37,000  Level Albuquerque Center
Fri 03:06:58 PM 35.0706 -103.3622 86° East 467 537 37,000  Level Albuquerque Center
Fri 03:08:00 PM 35.0792 -103.2022 86° East 469 540 37,000  Level Albuquerque Center
Fri 03:09:02 PM 35.0869 -103.0425 87° East 469 540 37,000  Level Albuquerque Center
Fri 03:10:04 PM 35.0936 -102.8808 87° East 471 542 37,000  Level Albuquerque Center
Fri 03:11:06 PM 35.1014 -102.7217 87° East 472 543 37,000  Level Albuquerque Center
Fri 03:12:08 PM 35.1075 -102.5614 87° East 474 545 37,000  Level Albuquerque Center
Fri 03:13:10 PM 35.1169 -102.3697 86° East 472 543 37,000  Level Albuquerque Center
Fri 03:14:12 PM 35.1228 -102.2111 87° East 471 542 37,000  Level Albuquerque Center
Fri 03:15:14 PM 35.1289 -102.0519 87° East 471 542 37,000  Level Albuquerque Center
Fri 03:16:16 PM 35.1381 -101.8869 86° East 472 543 37,000  Level Albuquerque Center
Fri 03:17:18 PM 35.1428 -101.7253 88° East 472 543 37,000  Level Albuquerque Center
Fri 03:18:20 PM 35.1508 -101.5731 86° East 470 541 37,000  Level Albuquerque Center
Fri 03:19:22 PM 35.1569 -101.3806 88° East 471 542 37,000  Level Albuquerque Center
Fri 03:20:24 PM 35.1608 -101.2353 88° East 472 543 37,000  Level Albuquerque Center
Fri 03:21:26 PM 35.1658 -101.0753 88° East 473 544 37,000  Level Albuquerque Center
Fri 03:22:28 PM 35.1722 -100.8844 88° East 471 542 37,000  Level Albuquerque Center
Fri 03:23:30 PM 35.1772 -100.7258 88° East 470 541 37,000  Level Albuquerque Center
Fri 03:24:32 PM 35.1819 -100.5664 88° East 470 541 37,000  Level Albuquerque Center
Fri 03:25:34 PM 35.1878 -100.4217 87° East 468 539 37,000  Level Albuquerque Center
Fri 03:26:36 PM 35.1897 -100.2297 89° East 470 541 37,000  Level Albuquerque Center
Fri 03:27:38 PM 35.1939 -100.0697 88° East 470 541 37,000  Level Albuquerque Center
Fri 03:28:39 PM 35.1986 -99.9117 88° East 468 539 37,000  Level Albuquerque Center
Fri 03:29:41 PM 35.2008 -99.7525 89° East 469 540 37,000  Level Albuquerque Center
Fri 03:30:43 PM 35.2039 -99.5922 89° East 471 542 37,000  Level Albuquerque Center
Fri 03:31:45 PM 35.2072 -99.4339 88° East 470 541 37,000  Level Albuquerque Center
Fri 03:32:34 PM 35.2089 -99.2761 89° East 465 535 37,000  Level Fort Worth Center
Fri 03:33:34 PM 35.2111 -99.1136 89° East 465 535 37,000  Level Fort Worth Center
Fri 03:34:34 PM 35.2153 -98.9533 88° East 465 535 37,000  Level Fort Worth Center
Fri 03:35:34 PM 35.2172 -98.7908 89° East 465 535 37,000  Level Fort Worth Center
Fri 03:36:34 PM 35.2189 -98.6308 89° East 465 535 37,000  Level Fort Worth Center
Fri 03:37:34 PM 35.2203 -98.4758 89° East 471 542 37,000  Level Fort Worth Center
Fri 03:38:34 PM 35.2214 -98.3158 89° East 466 536 37,000  Level Fort Worth Center
Fri 03:39:34 PM 35.2225 -98.1556 89° East 466 536 37,000  Level Fort Worth Center
Fri 03:40:34 PM 35.2233 -97.9931 90° East 466 536 37,000  Level Fort Worth Center
Fri 03:41:34 PM 35.2242 -97.8353 90° East 466 536 37,000  Level Fort Worth Center
Fri 03:42:34 PM 35.2244 -97.6753 90° East 466 536 37,000  Level Fort Worth Center
Fri 03:43:34 PM 35.2228 -97.5178 91° East 461 531 37,000  Level Fort Worth Center
Fri 03:44:34 PM 35.2269 -97.3703 88° East 461 531 37,000  Level Fort Worth Center
Fri 03:45:34 PM 35.2289 -97.2078 89° East 468 539 37,000 200 Level Fort Worth Center
Fri 03:46:34 PM 35.2242 -97.0503 92° East 473 544 37,400 500 Climbing Fort Worth Center
Fri 03:47:34 PM 35.2258 -96.8825 89° East 473 544 38,000 800 Climbing Fort Worth Center
Fri 03:48:34 PM 35.2250 -96.7197 90° East 479 551 39,000 500 Climbing Fort Worth Center
Fri 03:49:34 PM 35.2239 -96.5544 90° East 479 551 39,000  Level Fort Worth Center
Fri 03:50:34 PM 35.2228 -96.3969 90° East 479 551 39,000  Level Fort Worth Center
Fri 03:51:34 PM 35.2214 -96.2319 91° East 479 551 39,000  Level Fort Worth Center
Fri 03:52:34 PM 35.2197 -96.0717 91° East 474 545 39,000  Level Fort Worth Center
Fri 03:53:34 PM 35.2200 -95.9092 90° East 474 545 39,000  Level Fort Worth Center
Fri 03:54:34 PM 35.2178 -95.7389 91° East 469 540 39,000  Level Fort Worth Center
Fri 03:56:21 PM 35.2158 -95.4578 90° East 459 528 39,000  Level Memphis Center
Fri 03:57:20 PM 35.2119 -95.3000 92° East 459 528 39,000  Level Memphis Center
Fri 03:58:21 PM 35.2097 -95.1397 91° East 464 534 39,000  Level Memphis Center
Fri 03:59:20 PM 35.2075 -94.9822 91° East 464 534 39,000  Level Memphis Center
Fri 04:00:20 PM 35.2028 -94.8244 92° East 459 528 39,000  Level Memphis Center
Fri 04:01:20 PM 35.1961 -94.6564 93° East 470 541 39,000  Level Memphis Center
Fri 04:02:20 PM 35.1972 -94.5014 89° East 475 547 39,000  Level Memphis Center
Fri 04:03:21 PM 35.1919 -94.3461 92° East 465 535 39,000  Level Memphis Center
Fri 04:04:20 PM 35.1906 -94.1911 91° East 459 528 39,000  Level Memphis Center
Fri 04:05:20 PM 35.1867 -94.0386 92° East 459 528 39,000  Level Memphis Center
Fri 04:06:20 PM 35.1828 -93.8858 92° East 459 528 39,000  Level Memphis Center
Fri 04:07:20 PM 35.1786 -93.7333 92° East 454 522 39,000  Level Memphis Center
Fri 04:08:20 PM 35.1744 -93.5808 92° East 449 517 39,000  Level Memphis Center
Fri 04:09:20 PM 35.1697 -93.4306 92° East 449 517 39,000  Level Memphis Center
Fri 04:10:20 PM 35.1672 -93.2833 91° East 435 501 39,000  Level Memphis Center
Fri 04:11:20 PM 35.1642 -93.1358 91° East 430 495 39,000  Level Memphis Center
Fri 04:12:20 PM 35.1553 -92.9756 94° East 448 516 39,000  Level Memphis Center
Fri 04:13:20 PM 35.1519 -92.8281 92° East 448 516 39,000  Level Memphis Center
Fri 04:14:20 PM 35.1444 -92.6706 93° East 448 516 39,000  Level Memphis Center
Fri 04:15:20 PM 35.1369 -92.5181 93° East 448 516 39,000  Level Memphis Center
Fri 04:16:20 PM 35.1311 -92.3653 93° East 448 516 39,000  Level Memphis Center
Fri 04:17:20 PM 35.1272 -92.2156 92° East 448 516 39,000  Level Memphis Center
Fri 04:18:20 PM 35.1189 -92.0631 94° East 448 516 39,000  Level Memphis Center
Fri 04:19:20 PM 35.1125 -91.9106 93° East 443 510 39,000  Level Memphis Center
Fri 04:20:20 PM 35.1058 -91.7556 93° East 443 510 39,000  Level Memphis Center
Fri 04:21:20 PM 35.0992 -91.6033 93° East 443 510 39,000  Level Memphis Center
Fri 04:22:21 PM 35.0944 -91.4508 92° East 443 510 39,000  Level Memphis Center
Fri 04:23:20 PM 35.0872 -91.3011 93° East 443 510 39,000  Level Memphis Center
Fri 04:24:20 PM 35.0778 -91.1514 94° East 443 510 39,000  Level Memphis Center
Fri 04:25:20 PM 35.0725 -90.9989 92° East 443 510 39,000  Level Memphis Center
Fri 04:26:21 PM 35.0647 -90.8442 93° East 443 510 39,000  Level Memphis Center
Fri 04:27:20 PM 35.0569 -90.6894 93° East 448 516 39,000  Level Memphis Center
Fri 04:28:20 PM 35.0489 -90.5397 94° East 448 516 39,000  Level Memphis Center
Fri 04:29:20 PM 35.0386 -90.3850 95° East 448 516 39,000  Level Memphis Center
Fri 04:30:20 PM 35.0322 -90.2506 93° East 448 516 39,000  Level Memphis Center
Fri 04:31:20 PM 35.0239 -90.0983 94° East 443 510 39,000  Level Memphis Center
Fri 04:32:20 PM 35.0150 -89.9464 94° East 443 510 39,000  Level Memphis Center
Fri 04:33:20 PM 34.9914 -89.7767 100° East 449 517 39,000  Level Memphis Center
Fri 04:34:20 PM 34.9675 -89.6147 100° East 471 542 39,000  Level Memphis Center
Fri 04:35:21 PM 34.9394 -89.4653 103° East 466 536 39,000  Level Memphis Center
Fri 04:36:20 PM 34.9172 -89.3111 100° East 466 536 39,000  Level Memphis Center
Fri 04:37:20 PM 34.8931 -89.1619 101° East 456 525 39,000  Level Memphis Center
Fri 04:38:21 PM 34.8728 -89.0281 100° East 450 518 39,000  Level Memphis Center
Fri 04:39:20 PM 34.8503 -88.8767 100° East 450 518 39,000  Level Memphis Center
Fri 04:40:20 PM 34.8275 -88.7303 101° East 444 511 39,000  Level Memphis Center
Fri 04:41:20 PM 34.8047 -88.5792 100° East 449 517 39,000  Level Memphis Center
Fri 04:42:20 PM 34.7797 -88.4406 102° East 442 509 39,000  Level Memphis Center
Fri 04:43:21 PM 34.7564 -88.2969 101° East 435 501 39,000  Level Memphis Center
Fri 04:44:20 PM 34.7328 -88.1283 100° East 442 509 39,000  Level Memphis Center
Fri 04:45:20 PM 34.7092 -87.9822 101° East 450 518 39,000  Level Memphis Center
Fri 04:46:21 PM 34.6856 -87.8392 101° East 445 512 39,000  Level Memphis Center
Fri 04:48:08 PM 34.6486 -87.5964 100° East 462 532 39,000  Level Atlanta Center
Fri 04:49:08 PM 34.6236 -87.4439 101° East 462 532 39,000 -50 Level Atlanta Center
Fri 04:50:08 PM 34.5944 -87.2914 103° East 462 532 38,900 -550 Descending Atlanta Center
Fri 04:51:08 PM 34.5650 -87.1389 103° East 457 526 37,900 -950 Descending Atlanta Center
Fri 04:52:08 PM 34.5336 -86.9764 103° East 452 520 37,000 -950 Descending Atlanta Center
Fri 04:53:08 PM 34.5036 -86.8242 103° East 452 520 36,000 -950 Descending Atlanta Center
Fri 04:54:08 PM 34.4736 -86.6719 103° East 452 520 35,100 -950 Descending Atlanta Center
Fri 04:55:08 PM 34.4433 -86.5197 104° East 458 527 34,100 -950 Descending Atlanta Center
Fri 04:56:08 PM 34.4150 -86.3653 102° East 458 527 33,200 -1,450 Descending Atlanta Center
Fri 04:57:08 PM 34.3844 -86.2111 103° East 463 533 31,200 -1,250 Descending Atlanta Center
Fri 04:58:08 PM 34.3539 -86.0567 103° East 463 533 30,700 -1,350 Descending Atlanta Center
Fri 04:59:08 PM 34.3269 -85.9078 102° East 463 533 28,500 -2,150 Descending Atlanta Center
Fri 05:00:08 PM 34.2994 -85.7839 105° East 442 509 26,400 -2,150 Descending Atlanta Center
Fri 05:01:08 PM 34.2722 -85.6400 103° East 435 501 24,200 -2,200 Descending Atlanta Center
Fri 05:02:08 PM 34.2428 -85.4989 104° East 435 501 22,000 -2,150 Descending Atlanta Center
Fri 05:03:08 PM 34.2150 -85.3650 104° East 416 479 19,900 -2,050 Descending Atlanta Center
Fri 05:04:08 PM 34.1853 -85.2217 104° East 411 473 17,900 -2,100 Descending Atlanta Center
Fri 05:05:08 PM 34.1486 -85.0981 110° East 398 458 15,700 -1,950 Descending Atlanta Center
Fri 05:06:08 PM 34.0764 -85.0069 134° Southeast 372 428 14,000 -950 Descending Atlanta Center
Fri 05:07:08 PM 34.0103 -84.9208 133° Southeast 365 420 13,800 -600 Descending Atlanta Center
Fri 05:08:08 PM 33.9419 -84.8375 135° Southeast 353 406 12,800 -900 Descending Atlanta Center
Fri 05:09:08 PM 33.8778 -84.7569 134° Southeast 341 392 12,000 -632 Descending Atlanta Center
Fri 05:09:24 PM 33.8667 -84.7333 120° Southeast 333 383 12,000  Level Atlanta TRACON
Fri 05:10:24 PM 33.8000 -84.6500 134° Southeast 333 383 12,000 -100 Level Atlanta TRACON
Fri 05:11:24 PM 33.7500 -84.5833 132° Southeast 279 321 11,800 -474 Descending Atlanta TRACON
Fri 05:12:18 PM 33.7333 -84.5000 104° East 272 313 11,100 -1,053 Descending Atlanta TRACON
Fri 05:13:18 PM 33.7333 -84.4000 90° East 274 315 9,800 -1,250 Descending Atlanta TRACON
Fri 05:14:18 PM 33.7333 -84.3167 90° East 257 296 8,600 -1,150 Descending Atlanta TRACON
Fri 05:15:18 PM 33.7333 -84.2333 90° East 245 282 7,500 -1,400 Descending Atlanta TRACON
Fri 05:16:18 PM 33.7167 -84.1667 107° East 240 276 5,800 -1,368 Descending Atlanta TRACON
Fri 05:17:12 PM 33.6667 -84.1833 196° South 215 247 4,900 -1,053 Descending Atlanta TRACON
Fri 05:18:12 PM 33.6500 -84.2500 253° West 184 212 3,800 -1,150 Descending Atlanta TRACON
Fri 05:19:12 PM 33.6500 -84.3167 270° West 180 207 2,600 -1,000 Descending Atlanta TRACON
Fri 05:20:12 PM 33.6500 -84.3667 270° West 147 169 1,800 -800 Descending Atlanta TRACON
Fri 05:22:00 PM 33.6333 -84.4167 North  Level FlightAware Approximate
Fri 05:29:00 PM 33.6367 -84.4279 North  Level Estimated
Fri 05:30:00 PM 33.6367 -84.4279 North  Level Estimated

Login

Don't have an account? Register now (free) for customized features, flight alerts, and more!